LiveATC.Net - Listen to live air traffic control over the Internet!


ICAO: KLUK  IATA: LUK   Airport: Cincinnati Municipal Airport-Lunken Field
City: Cincinnati   State/Province: Ohio
Country: United States   Continent: North America
KLUK METAR Weather: KLUK 161053Z AUTO 02003KT 8SM OVC008 01/00 A3006 RMK AO2 SLP184 T00110000
KLUK Flight Activity (FlightAware)
KLUK Airport Info   (iFlightPlanner)
KLUK VFR Sectional Chart   (iFlightPlanner) 
KLUK IFR Low Chart   (iFlightPlanner) 

KLUK Twr/App/Dep
Feed Status: UP   Listeners: 0
Listen in your browser - HTML5 player (in browser, HTML5)
Click here to listen with your own player (launches your MP3 player)
Archive Access: KLUK Twr/App/Dep
FacilityFrequency
Cincinnati Approach121.000
Cincinnati Departure128.700
Lunken Tower118.700

NOTICE

Unauthorized use prohibited. See LiveATC.net Terms of Service


Airport/ARTCC Code
Frequency Search
(e.g., 124.400, 128.75)
Site-wide search
 


Browse Feeds
Top 50 Feeds
Coverage Map
Bad Weather Areas

LiveATC FAQ
Offer LiveATC feed
Contact LiveATC.net
Press Inquiries

LiveATC on iPhone
LiveATC on Android

Windows Phone
Windows 8/10

LiveATC Mobile
(Mobile browser)

ATC Audio Archives
Interesting Recordings

LiveATC Forums


Home Page
About LiveATC.net
Make a Donation
Terms of Use
Privacy Policy

Canadian Air Freqs

AIRMETs/SIGMETs

FAA Airport Status
Nat'l Airspace Status
Arrival Demand Charts


Server Software By:
Icecast.org
Liquidsoap